Time;durP1;ratioP1;P1;durP2;ratioP2;P2;SDS_P1;SDS_P2;PMS_P1;PMS_P2;Temp;Humidity;BMP_temperature;BMP_pressure;BME280_temperature;BME280_humidity;BME280_pressure;Samples;Min_cycle;Max_cycle;Signal;HPM_P1;HPM_P2
2022/05/20 00:01:44;;;;;;;46.00;37.17;;;;;;;13.51;100.00;102069.88;5096752;28;20351;-62
2022/05/20 00:04:09;;;;;;;48.97;35.97;;;;;;;13.66;100.00;102095.25;5096501;28;20038;-63
2022/05/20 00:06:35;;;;;;;47.35;36.92;;;;;;;13.66;100.00;102097.88;5097352;28;20396;-62
2022/05/20 00:09:00;;;;;;;49.10;37.00;;;;;;;13.58;100.00;102096.16;5078863;28;20036;-63
2022/05/20 00:11:25;;;;;;;46.67;36.10;;;;;;;13.57;100.00;102097.03;5096833;28;20111;-62
2022/05/20 00:13:50;;;;;;;47.70;37.55;;;;;;;13.50;100.00;102084.81;5096710;28;20024;-63
2022/05/20 00:16:16;;;;;;;47.58;36.58;;;;;;;13.51;100.00;102091.81;5096391;28;20050;-63
2022/05/20 00:18:42;;;;;;;46.53;35.13;;;;;;;13.44;100.00;102092.75;5097148;28;20032;-61
2022/05/20 00:21:07;;;;;;;46.22;35.28;;;;;;;13.41;100.00;102095.38;5096181;28;20040;-64
2022/05/20 00:23:33;;;;;;;42.45;34.28;;;;;;;13.31;100.00;102093.69;5096404;28;20024;-62
2022/05/20 00:25:58;;;;;;;45.53;34.53;;;;;;;13.31;100.00;102082.28;5096701;28;20070;-62
2022/05/20 00:28:26;;;;;;;43.63;34.65;;;;;;;13.32;100.00;102086.69;5096379;28;20028;-62
2022/05/20 00:30:55;;;;;;;44.00;34.08;;;;;;;13.30;100.00;102089.31;5096392;28;20032;-63
2022/05/20 00:33:21;;;;;;;44.30;33.75;;;;;;;13.21;100.00;102071.81;5095952;28;20136;-62
2022/05/20 00:35:46;;;;;;;43.03;33.05;;;;;;;13.30;100.00;102076.16;5096616;28;20106;-62
2022/05/20 00:38:12;;;;;;;45.55;33.58;;;;;;;13.25;100.00;102075.31;5096289;28;20434;-62
2022/05/20 00:40:38;;;;;;;41.13;32.00;;;;;;;13.18;100.00;102052.53;5096400;28;20408;-63
2022/05/20 00:43:15;;;;;;;45.25;33.42;;;;;;;13.23;100.00;102080.56;5096175;28;20032;-63
2022/05/20 00:45:43;;;;;;;43.70;33.10;;;;;;;13.22;100.00;102083.19;5095584;28;20032;-62
2022/05/20 00:48:08;;;;;;;43.33;33.13;;;;;;;13.19;100.00;102076.19;5095862;28;20043;-63
2022/05/20 00:50:36;;;;;;;41.40;33.03;;;;;;;13.16;100.00;102073.56;5095730;28;20027;-62
2022/05/20 00:53:02;;;;;;;40.75;32.55;;;;;;;13.08;100.00;102071.84;5095709;28;20119;-62
2022/05/20 00:55:28;;;;;;;42.83;32.88;;;;;;;13.11;100.00;102067.44;5095579;28;20190;-62
2022/05/20 00:58:00;;;;;;;39.17;31.70;;;;;;;13.03;100.00;102070.97;5095777;28;20424;-62
2022/05/20 01:00:29;;;;;;;42.22;31.80;;;;;;;13.06;100.00;102071.84;5095495;28;20028;-61
2022/05/20 01:02:58;;;;;;;40.05;32.17;;;;;;;13.03;100.00;102082.34;5095601;28;20054;-62
2022/05/20 01:05:27;;;;;;;39.47;32.28;;;;;;;13.01;100.00;102073.59;5095193;28;20355;-63
2022/05/20 01:07:54;;;;;;;40.83;32.72;;;;;;;12.98;100.00;102072.78;5095563;28;20032;-62
2022/05/20 01:10:20;;;;;;;42.30;30.63;;;;;;;13.01;100.00;102080.63;5095551;28;20036;-64
2022/05/20 01:12:46;;;;;;;43.10;31.98;;;;;;;12.94;100.00;102077.16;5095617;28;20043;-62
2022/05/20 01:15:11;;;;;;;38.70;31.95;;;;;;;12.93;100.00;102079.78;5095323;28;20042;-62
2022/05/20 01:17:38;;;;;;;39.67;31.58;;;;;;;12.88;100.00;102074.53;5092270;28;20043;-63
2022/05/20 01:20:08;;;;;;;37.20;30.02;;;;;;;12.88;100.00;102088.53;5095315;28;20470;-63
2022/05/20 01:22:40;;;;;;;39.63;30.85;;;;;;;12.85;100.00;102087.66;5095301;28;20043;-62
2022/05/20 01:25:08;;;;;;;39.22;30.42;;;;;;;12.79;100.00;102087.72;5095094;28;20044;-64
2022/05/20 01:27:36;;;;;;;37.92;30.00;;;;;;;12.80;100.00;102066.69;5095158;28;20035;-62
2022/05/20 01:30:01;;;;;;;39.90;30.52;;;;;;;12.84;100.00;102070.16;5094920;28;20458;-62
2022/05/20 01:32:27;;;;;;;36.25;29.70;;;;;;;12.78;100.00;102072.81;5094300;28;20032;-64
2022/05/20 01:34:52;;;;;;;35.33;28.98;;;;;;;12.71;100.00;102058.81;5095360;28;20037;-63
2022/05/20 01:37:17;;;;;;;36.92;28.52;;;;;;;12.66;100.00;102057.94;5095412;28;20488;-63
2022/05/20 01:39:42;;;;;;;39.42;30.42;;;;;;;12.71;100.00;102061.44;5095023;28;20043;-62
2022/05/20 01:42:37;;;;;;;35.97;29.15;;;;;;;12.77;100.00;102057.94;5094879;28;20067;-62
2022/05/20 01:45:12;;;;;;;36.40;28.65;;;;;;;12.70;100.00;102051.81;5090872;28;20392;-62
2022/05/20 01:47:46;;;;;;;35.90;30.02;;;;;;;12.77;100.00;102053.56;5094973;28;20128;-63
2022/05/20 01:50:21;;;;;;;41.60;32.10;;;;;;;12.61;100.00;102041.34;5094355;28;20431;-63
2022/05/20 01:53:02;;;;;;;40.78;31.95;;;;;;;12.61;100.00;102046.63;5094840;28;20042;-61
2022/05/20 01:55:38;;;;;;;38.20;31.05;;;;;;;12.62;100.00;102037.84;5095074;28;20031;-63
2022/05/20 01:58:10;;;;;;;39.50;31.08;;;;;;;12.58;100.00;102037.84;5094955;28;20124;-63
2022/05/20 02:00:37;;;;;;;43.25;32.40;;;;;;;12.57;100.00;102042.25;5094701;28;20474;-63
2022/05/20 02:03:15;;;;;;;45.22;33.05;;;;;;;12.61;100.00;102038.72;5094999;28;20451;-63
2022/05/20 02:05:47;;;;;;;45.35;32.10;;;;;;;12.51;100.00;102034.34;5094640;28;20060;-63
2022/05/20 02:08:21;;;;;;;45.50;34.30;;;;;;;12.52;100.00;102039.63;5094967;28;20038;-63
2022/05/20 02:11:07;;;;;;;44.13;33.50;;;;;;;12.54;100.00;102029.09;5095066;28;20388;-62
2022/05/20 02:13:36;;;;;;;44.80;33.60;;;;;;;12.55;100.00;102036.09;5094606;28;20416;-62
2022/05/20 02:16:25;;;;;;;41.05;33.70;;;;;;;12.59;100.00;102039.59;5095147;28;20032;-62
2022/05/20 02:19:08;;;;;;;46.42;34.95;;;;;;;12.49;100.00;102026.50;5094604;28;20059;-62
2022/05/20 02:21:38;;;;;;;46.53;35.28;;;;;;;12.46;100.00;102031.78;5094799;28;20036;-62
2022/05/20 02:24:08;;;;;;;46.72;34.67;;;;;;;12.46;100.00;102029.16;5094940;28;20066;-63
2022/05/20 02:26:47;;;;;;;47.78;34.88;;;;;;;12.47;100.00;102040.50;5094800;28;20028;-64
2022/05/20 02:29:16;;;;;;;45.85;34.67;;;;;;;12.43;100.00;102030.91;5094635;28;20035;-64
2022/05/20 02:31:49;;;;;;;46.78;36.13;;;;;;;12.43;100.00;102023.03;5094618;28;20092;-63
2022/05/20 02:34:15;;;;;;;48.88;36.33;;;;;;;12.25;100.00;102002.94;5094846;28;20467;-64
2022/05/20 02:36:40;;;;;;;46.47;34.75;;;;;;;12.38;100.00;102033.53;5094403;28;20028;-62
2022/05/20 02:39:14;;;;;;;45.28;35.03;;;;;;;12.32;100.00;102032.66;5094677;28;20040;-62
2022/05/20 02:41:41;;;;;;;45.63;34.67;;;;;;;12.32;100.00;102032.66;5094048;28;20084;-62
2022/05/20 02:44:06;;;;;;;50.35;36.00;;;;;;;12.25;100.00;102033.56;5096886;28;20046;-62
2022/05/20 02:46:32;;;;;;;46.40;33.95;;;;;;;12.23;100.00;102022.19;5098070;28;20032;-64
2022/05/20 02:48:57;;;;;;;47.72;34.05;;;;;;;12.26;100.00;102023.06;5097833;28;20027;-61
2022/05/20 02:51:22;;;;;;;47.33;36.05;;;;;;;12.19;100.00;102013.44;5098050;28;20111;-62
2022/05/20 02:53:47;;;;;;;42.42;33.63;;;;;;;12.22;100.00;102025.69;5097819;28;20028;-63
2022/05/20 02:56:13;;;;;;;44.90;34.15;;;;;;;12.22;100.00;102028.31;5097918;28;20054;-64
2022/05/20 03:04:11;;;;;;;45.00;34.75;;;;;;;12.04;100.00;102016.94;5097956;28;20192;-63
2022/05/20 03:06:44;;;;;;;45.50;34.50;;;;;;;12.04;100.00;102027.44;5097919;28;20028;-63
2022/05/20 03:09:11;;;;;;;45.67;34.35;;;;;;;11.98;100.00;102011.69;5098021;28;20042;-62
2022/05/20 03:11:39;;;;;;;46.47;35.03;;;;;;;11.98;100.00;102010.81;5097523;28;20185;-62
2022/05/20 03:14:05;;;;;;;46.60;34.83;;;;;;;11.94;100.00;102004.72;5097631;28;20028;-62
2022/05/20 03:16:31;;;;;;;47.30;34.67;;;;;;;12.02;100.00;102010.81;5097506;28;20047;-60
2022/05/20 03:18:56;;;;;;;46.00;35.70;;;;;;;11.95;100.00;102011.69;5097641;28;20032;-64
2022/05/20 03:21:22;;;;;;;48.08;36.50;;;;;;;12.04;100.00;102022.19;5097692;28;20032;-64
2022/05/20 03:23:47;;;;;;;50.60;35.45;;;;;;;12.04;100.00;102027.44;5097749;28;20038;-63
2022/05/20 03:26:12;;;;;;;48.78;35.63;;;;;;;12.00;100.00;102012.56;5097315;28;20034;-61
2022/05/20 03:28:38;;;;;;;47.90;36.15;;;;;;;12.04;100.00;102011.69;5097423;28;20081;-64
2022/05/20 03:31:07;;;;;;;46.65;35.00;;;;;;;12.08;100.00;102016.06;5097694;28;20032;-64
2022/05/20 03:33:33;;;;;;;48.55;34.65;;;;;;;12.05;100.00;102000.34;5097110;28;20123;-61
2022/05/20 03:35:59;;;;;;;48.53;34.95;;;;;;;12.08;100.00;102012.56;5097508;28;20028;-62
2022/05/20 03:38:24;;;;;;;50.13;36.22;;;;;;;12.00;100.00;102007.31;5097610;28;20039;-63
2022/05/20 03:40:49;;;;;;;49.95;36.13;;;;;;;12.03;100.00;102015.19;5097316;28;20035;-63
2022/05/20 03:43:14;;;;;;;51.35;36.83;;;;;;;11.99;100.00;102008.19;5096893;28;20046;-63
2022/05/20 03:45:42;;;;;;;48.80;36.55;;;;;;;12.00;100.00;102012.56;5096952;28;20085;-63
2022/05/20 03:48:08;;;;;;;50.63;35.67;;;;;;;12.14;100.00;102008.19;5097100;28;20027;-62
2022/05/20 03:50:33;;;;;;;48.13;35.97;;;;;;;12.19;100.00;101992.44;5097254;28;20028;-62
2022/05/20 03:52:59;;;;;;;47.05;36.60;;;;;;;12.29;100.00;101995.94;5097118;28;20048;-62
2022/05/20 03:55:25;;;;;;;59.67;39.25;;;;;;;12.33;100.00;101987.16;5096084;28;20040;-63
2022/05/20 03:57:51;;;;;;;57.40;40.78;;;;;;;12.32;100.00;101998.53;5097155;28;20131;-62
2022/05/20 04:00:17;;;;;;;55.58;39.47;;;;;;;12.27;100.00;101995.94;5096939;28;20450;-62
2022/05/20 04:02:42;;;;;;;55.17;39.40;;;;;;;12.32;100.00;101988.03;5096891;28;20051;-63
2022/05/20 04:05:07;;;;;;;55.63;40.35;;;;;;;12.24;100.00;101972.31;5096849;28;20431;-64
2022/05/20 04:07:33;;;;;;;54.80;39.25;;;;;;;12.19;100.00;101981.94;5096731;28;20099;-64
2022/05/20 04:09:58;;;;;;;55.60;39.95;;;;;;;12.17;100.00;101974.06;5096719;28;20062;-63
2022/05/20 04:12:30;;;;;;;55.33;40.42;;;;;;;12.16;100.00;101979.31;5096468;28;20036;-61
2022/05/20 04:14:58;;;;;;;54.97;40.10;;;;;;;12.18;100.00;101981.06;5097200;28;20039;-62
2022/05/20 04:17:24;;;;;;;56.33;38.78;;;;;;;12.08;100.00;101965.34;5096290;28;20028;-64
2022/05/20 04:19:50;;;;;;;52.47;37.80;;;;;;;12.06;100.00;101965.34;5078671;28;20093;-63
2022/05/20 04:22:19;;;;;;;56.28;40.22;;;;;;;12.06;100.00;101973.22;5096476;28;20039;-61
2022/05/20 04:24:44;;;;;;;56.40;41.13;;;;;;;11.98;100.00;101959.22;5096554;28;20423;-63
2022/05/20 04:27:10;;;;;;;52.47;39.20;;;;;;;12.09;100.00;101967.97;5096193;28;20078;-62
2022/05/20 04:29:35;;;;;;;55.15;40.60;;;;;;;12.25;100.00;101967.94;5096561;28;20052;-64
2022/05/20 04:32:01;;;;;;;56.67;41.28;;;;;;;12.32;100.00;101975.78;5096262;28;20028;-64
2022/05/20 04:34:26;;;;;;;57.55;41.25;;;;;;;12.39;100.00;101974.03;5096164;28;20078;-62
2022/05/20 04:36:51;;;;;;;58.78;42.35;;;;;;;12.35;100.00;101972.28;5096309;28;20042;-62
2022/05/20 04:39:17;;;;;;;56.20;41.83;;;;;;;12.34;100.00;101962.66;5095909;28;20081;-62
2022/05/20 04:47:18;;;;;;;76.20;50.15;;;;;;;12.39;100.00;101947.78;5116651;28;20049;-64
2022/05/20 04:49:43;;;;;;;72.78;49.30;;;;;;;12.54;100.00;101972.22;5116183;28;20028;-63
2022/05/20 04:52:09;;;;;;;71.80;47.95;;;;;;;12.51;100.00;101976.59;5116125;28;20036;-64
2022/05/20 04:54:50;;;;;;;74.60;48.88;;;;;;;12.59;100.00;101994.97;5115880;28;20375;-62
2022/05/20 04:57:19;;;;;;;74.03;48.75;;;;;;;12.64;100.00;102001.09;5116133;28;20081;-63
2022/05/20 04:59:45;;;;;;;71.25;47.65;;;;;;;12.63;100.00;101996.72;5116121;28;20119;-64
2022/05/20 05:02:12;;;;;;;71.15;47.10;;;;;;;12.65;100.00;101994.94;5115837;28;20023;-62
2022/05/20 05:04:37;;;;;;;72.00;48.05;;;;;;;12.82;100.00;101988.72;5116064;28;20363;-62
2022/05/20 05:07:02;;;;;;;71.68;46.72;;;;;;;13.04;100.00;101993.88;5114991;28;20031;-64
2022/05/20 05:09:28;;;;;;;66.93;45.97;;;;;;;13.19;100.00;102004.34;5115992;28;20046;-64
2022/05/20 05:11:53;;;;;;;67.80;45.13;;;;;;;13.17;100.00;101985.97;5115886;28;20043;-63
2022/05/20 05:14:19;;;;;;;69.13;45.65;;;;;;;13.21;100.00;101986.81;5115702;28;20039;-63
2022/05/20 05:16:45;;;;;;;69.07;45.95;;;;;;;13.19;100.00;101988.56;5115811;28;20032;-64
2022/05/20 05:19:11;;;;;;;63.15;44.25;;;;;;;13.25;100.00;101996.44;5115518;28;20323;-63
2022/05/20 05:21:37;;;;;;;63.95;45.22;;;;;;;13.31;100.00;101993.78;5115530;28;20028;-63
2022/05/20 05:24:03;;;;;;;62.45;44.53;;;;;;;13.35;100.00;101984.09;5115949;28;20023;-63
2022/05/20 05:26:30;;;;;;;62.63;44.53;;;;;;;13.39;100.00;101991.97;5115599;28;20039;-63
2022/05/20 05:28:56;;;;;;;56.97;43.25;;;;;;;13.52;100.00;102000.63;5115992;28;20028;-63
2022/05/20 05:31:22;;;;;;;57.20;42.22;;;;;;;13.58;100.00;101988.31;5115460;28;20490;-63
2022/05/20 05:33:47;;;;;;;54.55;42.55;;;;;;;13.56;100.00;101990.09;5115803;28;20047;-64
2022/05/20 05:36:13;;;;;;;56.60;43.22;;;;;;;13.59;100.00;101976.03;5090088;28;20063;-62
2022/05/20 05:38:38;;;;;;;53.78;42.33;;;;;;;13.69;100.00;101961.91;5095026;28;20032;-62
2022/05/20 05:41:04;;;;;;;56.88;42.88;;;;;;;13.73;100.00;101960.16;5094994;28;20065;-63
2022/05/20 05:43:29;;;;;;;57.88;43.42;;;;;;;13.72;100.00;101958.41;5095203;28;20035;-62
2022/05/20 05:45:54;;;;;;;56.45;42.80;;;;;;;13.83;100.00;101951.31;5094841;28;20050;-61
2022/05/20 05:48:20;;;;;;;54.97;42.80;;;;;;;14.05;100.00;101954.56;5095091;28;20035;-63
2022/05/20 05:50:45;;;;;;;51.67;41.22;;;;;;;14.22;100.00;101955.28;5095293;28;20036;-64
2022/05/20 05:53:22;;;;;;;54.70;39.85;;;;;;;14.42;100.00;101961.22;5095088;28;20057;-63
2022/05/20 05:55:53;;;;;;;50.90;39.38;;;;;;;14.59;100.00;101950.50;5095253;28;20110;-62
2022/05/20 05:58:18;;;;;;;50.35;37.78;;;;;;;14.67;100.00;101940.75;5094748;28;20400;-63
2022/05/20 06:00:44;;;;;;;45.38;34.35;;;;;;;14.78;100.00;101952.00;5095070;28;20056;-63
2022/05/20 06:03:09;;;;;;;41.47;33.50;;;;;;;14.88;100.00;101947.50;5094840;28;20043;-63
2022/05/20 06:05:35;;;;;;;43.33;32.33;;;;;;;14.93;100.00;101950.94;5094873;28;20032;-62
2022/05/20 06:08:01;;;;;;;43.63;31.95;;;;;;;14.88;100.00;101956.28;5094701;28;20358;-61
2022/05/20 06:10:27;;;;;;;39.30;31.25;;;;;;;14.80;100.00;101954.63;5091641;28;20044;-62
2022/05/20 06:12:55;;;;;;;37.30;29.92;;;;;;;14.70;100.00;101953.03;5094706;28;20046;-61
2022/05/20 06:15:22;;;;;;;35.88;27.25;;;;;;;15.06;99.40;101941.13;5094720;28;20028;-61
2022/05/20 06:17:49;;;;;;;35.17;26.90;;;;;;;15.63;97.87;101944.63;5095021;28;20194;-63
2022/05/20 06:20:15;;;;;;;33.53;26.23;;;;;;;16.30;93.38;101933.69;5098772;28;20027;-62
2022/05/20 06:22:41;;;;;;;33.20;25.00;;;;;;;16.41;91.18;101940.56;5098841;28;20354;-61
2022/05/20 06:25:07;;;;;;;28.98;22.55;;;;;;;15.88;91.64;101940.69;5098648;28;20039;-62
2022/05/20 06:27:32;;;;;;;30.45;24.05;;;;;;;15.31;94.00;101897.63;5098532;28;20347;-62
2022/05/20 06:29:58;;;;;;;27.52;22.27;;;;;;;15.35;95.35;101932.75;5098585;28;20024;-62
2022/05/20 06:32:24;;;;;;;28.85;22.50;;;;;;;15.29;95.44;101941.63;5098462;28;20047;-62
2022/05/20 06:40:19;;;;;;;27.65;20.25;;;;;;;15.74;92.01;101932.13;5098652;28;20047;-63
2022/05/20 06:42:44;;;;;;;25.80;19.50;;;;;;;15.87;89.48;101911.66;5098511;28;20042;-64
2022/05/20 06:45:11;;;;;;;24.35;18.83;;;;;;;15.98;89.58;101912.31;5097970;28;20027;-63
2022/05/20 06:47:37;;;;;;;24.88;17.35;;;;;;;15.94;87.53;101914.16;5098029;28;20040;-65
2022/05/20 06:50:03;;;;;;;24.98;19.17;;;;;;;15.93;88.64;101909.75;5098287;28;20031;-63
2022/05/20 06:52:29;;;;;;;23.75;18.65;;;;;;;15.87;89.85;101915.19;5098258;28;20028;-63
2022/05/20 06:54:54;;;;;;;25.77;19.20;;;;;;;15.91;89.73;101916.00;5098273;28;20446;-63
2022/05/20 06:57:20;;;;;;;22.67;17.23;;;;;;;16.04;85.76;101914.88;5098171;28;20449;-62
2022/05/20 06:59:45;;;;;;;21.70;16.98;;;;;;;16.16;87.05;101911.97;5098229;28;20347;-63
2022/05/20 07:02:11;;;;;;;19.88;16.25;;;;;;;16.33;87.06;101911.66;5098063;28;20020;-62
2022/05/20 07:04:36;;;;;;;18.85;15.88;;;;;;;16.44;86.51;101909.69;5099217;28;20119;-64
2022/05/20 07:07:03;;;;;;;21.83;16.05;;;;;;;16.44;86.23;101895.59;5117898;28;20084;-61
2022/05/20 07:09:29;;;;;;;20.08;16.08;;;;;;;16.48;85.36;101899.88;5117978;28;20494;-61
2022/05/20 07:11:55;;;;;;;19.85;15.07;;;;;;;16.65;83.54;101892.50;5102246;28;20161;-63
2022/05/20 07:14:21;;;;;;;17.15;13.77;;;;;;;16.96;82.05;101896.22;5097804;28;20059;-63
2022/05/20 07:16:47;;;;;;;21.33;15.13;;;;;;;17.35;82.49;101881.16;5097649;28;20303;-62
2022/05/20 07:19:12;;;;;;;15.23;12.07;;;;;;;17.81;78.27;101874.72;5097311;28;20115;-64
2022/05/20 07:21:37;;;;;;;16.02;13.10;;;;;;;17.91;77.00;101867.38;5102946;28;20036;-63
2022/05/20 07:24:04;;;;;;;14.25;11.27;;;;;;;17.64;76.33;101866.34;5097517;28;20027;-63
2022/05/20 07:26:30;;;;;;;16.25;10.88;;;;;;;17.48;76.55;101865.84;5094662;28;20132;-63
2022/05/20 07:28:55;;;;;;;15.55;11.02;;;;;;;17.44;76.20;101869.47;5097519;28;20439;-63
2022/05/20 07:31:23;;;;;;;15.02;9.90;;;;;;;17.40;77.24;101859.88;5096394;28;20370;-66
2022/05/20 07:33:49;;;;;;;13.32;9.55;;;;;;;17.44;76.03;101852.75;5097112;28;20485;-65
2022/05/20 07:36:15;;;;;;;13.18;9.10;;;;;;;17.54;76.68;101833.91;5097536;28;20099;-63
2022/05/20 07:38:40;;;;;;;11.70;8.70;;;;;;;17.66;72.89;101861.91;5097182;28;20440;-64
2022/05/20 07:41:06;;;;;;;12.23;8.32;;;;;;;17.73;76.12;101871.41;5097184;28;20028;-63
2022/05/20 07:43:32;;;;;;;10.82;7.97;;;;;;;17.79;75.13;101865.94;5097264;28;20047;-63
2022/05/20 07:45:58;;;;;;;9.50;7.97;;;;;;;17.93;72.93;101855.84;5097113;28;20036;-63
2022/05/20 07:48:23;;;;;;;13.27;8.98;;;;;;;18.16;71.34;101847.25;5097015;28;20103;-64
2022/05/20 07:50:53;;;;;;;12.18;8.32;;;;;;;18.40;71.08;101838.56;5097154;28;20062;-64
2022/05/20 07:53:21;;;;;;;12.73;8.02;;;;;;;18.68;70.99;101830.69;5096858;28;20043;-63
2022/05/20 07:56:01;;;;;;;11.85;8.65;;;;;;;18.73;70.59;101826.09;5096984;28;20043;-64
2022/05/20 07:58:30;;;;;;;9.40;7.43;;;;;;;18.71;69.00;101827.91;5096820;28;20035;-63
2022/05/20 08:00:58;;;;;;;13.10;8.10;;;;;;;18.75;68.33;101829.56;5097018;28;20043;-64
2022/05/20 08:06:12;;;;;;;10.60;7.70;;;;;;;18.85;66.98;101800.97;5096524;28;20054;-63
2022/05/20 08:08:39;;;;;;;9.10;7.57;;;;;;;18.86;67.38;101812.47;5096912;28;20028;-63
2022/05/20 08:11:04;;;;;;;9.18;7.15;;;;;;;18.63;65.22;101784.88;5096167;28;20032;-64
2022/05/20 08:13:29;;;;;;;13.65;8.13;;;;;;;18.81;66.75;101812.59;5093448;28;20055;-63
2022/05/20 08:15:55;;;;;;;10.17;7.77;;;;;;;18.87;66.52;101806.25;5096717;28;20423;-66
2022/05/20 08:18:20;;;;;;;12.70;7.47;;;;;;;18.80;65.98;101789.66;5096447;28;20273;-63
2022/05/20 08:20:45;;;;;;;9.40;7.73;;;;;;;19.00;64.21;101807.56;5096122;28;20401;-65
2022/05/20 08:23:11;;;;;;;11.43;7.95;;;;;;;19.09;64.90;101805.47;5096443;28;20269;-64
2022/05/20 08:25:37;;;;;;;9.63;7.47;;;;;;;19.20;64.92;101804.25;5096196;28;20024;-63
2022/05/20 08:28:03;;;;;;;13.20;8.57;;;;;;;19.17;63.10;101809.66;5078854;28;20324;-66
2022/05/20 08:30:29;;;;;;;12.25;8.88;;;;;;;19.20;63.66;101794.50;5096570;28;20391;-64
2022/05/20 08:32:54;;;;;;;16.73;9.40;;;;;;;19.38;63.63;101793.00;5096034;28;20051;-64
2022/05/20 08:35:23;;;;;;;14.23;9.20;;;;;;;19.42;64.77;101798.13;5096118;28;20438;-63
2022/05/20 08:37:50;;;;;;;13.63;9.45;;;;;;;19.37;64.24;101796.56;5101410;28;20107;-63
2022/05/20 08:40:23;;;;;;;13.23;9.52;;;;;;;19.32;65.83;101787.91;5116514;28;20102;-64
2022/05/20 08:42:51;;;;;;;13.50;9.68;;;;;;;19.15;64.89;101769.03;5116412;28;20028;-64
2022/05/20 08:45:19;;;;;;;14.60;9.30;;;;;;;19.22;65.44;101760.78;5116287;28;20028;-63
2022/05/20 08:47:50;;;;;;;14.77;10.68;;;;;;;19.40;65.75;101749.53;5115996;28;20035;-65
2022/05/20 08:50:24;;;;;;;10.93;9.40;;;;;;;19.42;66.23;101742.38;5116246;28;20047;-64
2022/05/20 08:52:51;;;;;;;15.30;11.18;;;;;;;19.45;64.99;101750.25;5113089;28;20062;-58
2022/05/20 08:55:17;;;;;;;13.10;10.38;;;;;;;19.62;66.72;101736.38;5101567;28;20051;-64
2022/05/20 08:57:51;;;;;;;13.38;10.57;;;;;;;19.60;64.96;101735.56;5096023;28;20343;-64
2022/05/20 09:00:18;;;;;;;14.68;11.23;;;;;;;19.70;64.63;101729.03;5101470;28;20040;-64
2022/05/20 09:02:43;;;;;;;15.05;10.95;;;;;;;19.97;65.99;101734.19;5095625;28;20028;-63
2022/05/20 09:05:18;;;;;;;14.18;11.00;;;;;;;19.90;65.25;101751.31;5095734;28;20077;-63
2022/05/20 09:08:19;;;;;;;13.90;12.13;;;;;;;19.91;66.98;101729.13;5095441;28;20478;-63
2022/05/20 09:10:50;;;;;;;17.08;12.07;;;;;;;19.85;65.44;101716.94;5041902;28;20046;-63
2022/05/20 09:13:20;;;;;;;17.88;12.05;;;;;;;20.05;64.16;101718.84;5095329;28;20526;-63
2022/05/20 09:15:58;;;;;;;16.17;11.98;;;;;;;20.21;64.88;101716.44;5095651;28;20126;-64
2022/05/20 09:18:42;;;;;;;14.38;12.48;;;;;;;20.61;64.58;101707.75;5095466;28;20050;-64
2022/05/20 09:21:14;;;;;;;16.95;11.95;;;;;;;21.38;60.70;101699.09;5095364;28;20032;-64
2022/05/20 09:23:53;;;;;;;15.50;11.98;;;;;;;21.51;62.01;101694.09;5095419;28;20096;-64
2022/05/20 09:26:32;;;;;;;15.02;12.30;;;;;;;21.46;60.91;101682.78;5095357;28;20031;-63
2022/05/20 09:29:10;;;;;;;16.67;13.75;;;;;;;21.65;61.70;101678.31;5095461;28;20032;-64
2022/05/20 09:32:06;;;;;;;16.90;13.40;;;;;;;21.50;63.01;101663.91;5095701;28;20110;-63
2022/05/20 09:34:38;;;;;;;19.48;12.90;;;;;;;21.12;60.63;101668.28;5074132;28;20040;-64
2022/05/20 09:37:05;;;;;;;18.48;14.38;;;;;;;20.90;61.27;101664.84;5095390;28;20118;-63
2022/05/20 09:39:40;;;;;;;19.67;14.88;;;;;;;21.01;61.52;101645.72;5095193;28;20103;-64
2022/05/20 09:42:13;;;;;;;20.42;14.75;;;;;;;21.08;61.30;101652.53;5094834;28;20043;-63
2022/05/20 09:44:48;;;;;;;24.45;15.23;;;;;;;21.09;60.65;101652.47;5094933;28;20078;-63
2022/05/20 09:47:26;;;;;;;20.55;15.40;;;;;;;21.39;62.22;101636.94;5095266;28;20336;-63
2022/05/20 09:49:54;;;;;;;20.30;14.60;;;;;;;21.72;61.84;101628.28;5095196;28;20362;-64
2022/05/20 09:52:32;;;;;;;19.55;14.25;;;;;;;22.10;62.73;101614.03;5095734;28;20335;-65
2022/05/20 09:55:04;;;;;;;19.70;13.65;;;;;;;22.21;61.11;101602.81;5101612;28;20435;-64
2022/05/20 09:57:42;;;;;;;24.17;16.30;;;;;;;22.08;60.01;101607.91;5101610;28;20366;-63
2022/05/20 10:00:13;;;;;;;21.30;14.75;;;;;;;22.19;58.44;101602.91;5101770;28;20024;-64
2022/05/20 10:02:49;;;;;;;23.90;15.20;;;;;;;22.27;60.96;101583.00;5101829;28;20575;-64
2022/05/20 10:05:43;;;;;;;20.33;15.52;;;;;;;22.38;60.44;101580.63;5101456;28;20093;-65
2022/05/20 10:08:19;;;;;;;20.98;15.52;;;;;;;22.38;60.75;101549.50;5101557;28;20036;-63
2022/05/20 10:10:51;;;;;;;17.45;14.25;;;;;;;22.48;58.89;101557.91;5083660;28;20032;-64
2022/05/20 10:13:53;;;;;;;18.85;14.55;;;;;;;22.52;61.17;101552.31;5101521;28;20036;-63
2022/05/20 10:16:32;;;;;;;21.63;14.63;;;;;;;22.45;61.05;101544.72;5101504;28;20047;-63
2022/05/20 10:19:20;;;;;;;18.60;14.48;;;;;;;22.37;61.44;101521.09;5101533;28;20038;-63
2022/05/20 10:22:02;;;;;;;19.80;13.73;;;;;;;22.45;61.99;101532.25;5101654;28;20027;-65
2022/05/20 10:24:50;;;;;;;20.73;13.65;;;;;;;22.36;61.12;101535.38;5101631;28;20032;-63
2022/05/20 10:27:40;;;;;;;19.38;13.18;;;;;;;22.50;61.72;101516.88;5101550;28;20092;-65
2022/05/20 10:33:14;;;;;;;17.17;13.35;;;;;;;22.38;60.79;101512.16;5101497;28;20075;-63
2022/05/20 10:36:00;;;;;;;20.30;13.48;;;;;;;22.26;61.31;101507.47;5103645;28;20067;-64
2022/05/20 10:38:48;;;;;;;19.95;13.13;;;;;;;22.05;59.77;101500.56;5113210;28;20038;-63
2022/05/20 10:41:39;;;;;;;17.90;13.30;;;;;;;21.89;61.21;101477.31;5121991;28;20028;-63
2022/05/20 10:50:31;;;;;;;19.10;13.38;;;;;;;21.80;61.58;101440.50;5121605;28;20070;-64
2022/05/20 10:53:22;;;;;;;19.13;13.63;;;;;;;21.78;61.70;101425.53;5121590;28;20020;-63
2022/05/20 10:55:58;;;;;;;16.90;12.80;;;;;;;21.91;61.45;101415.09;5121930;28;20114;-63
2022/05/20 10:58:41;;;;;;;18.63;14.07;;;;;;;21.96;61.18;101411.25;5121662;28;20074;-64
2022/05/20 11:01:17;;;;;;;16.00;12.43;;;;;;;21.96;61.14;101397.06;5121411;28;20055;-63
2022/05/20 11:04:03;;;;;;;18.27;13.90;;;;;;;21.86;61.95;101384.19;5121507;28;20032;-64
2022/05/20 11:06:46;;;;;;;21.60;15.15;;;;;;;21.65;60.94;101345.34;5116251;28;20031;-64
2022/05/20 11:09:43;;;;;;;19.92;14.68;;;;;;;21.78;61.55;101353.56;5103421;28;20020;-64
2022/05/20 11:12:16;;;;;;;19.73;14.05;;;;;;;21.66;62.19;101346.19;5106805;28;20031;-64
2022/05/20 11:15:20;;;;;;;20.30;15.10;;;;;;;21.93;62.62;101322.59;5116366;28;20032;-64
2022/05/20 11:18:19;;;;;;;21.60;16.67;;;;;;;22.07;63.05;101328.09;5116452;28;20043;-64
2022/05/20 11:21:06;;;;;;;23.85;18.15;;;;;;;22.10;62.39;101330.59;5115821;28;20031;-64
2022/05/20 11:23:34;;;;;;;25.38;18.40;;;;;;;22.02;62.56;101320.31;5116226;28;20039;-64
2022/05/20 11:26:32;;;;;;;22.92;18.38;;;;;;;22.00;62.89;101321.34;5116015;28;20111;-64
2022/05/20 11:29:18;;;;;;;23.00;18.08;;;;;;;21.93;63.64;101320.78;5116178;28;20110;-65
2022/05/20 11:32:05;;;;;;;27.10;20.30;;;;;;;21.76;64.44;101305.69;5117544;28;20339;-64
2022/05/20 11:35:01;;;;;;;26.30;21.50;;;;;;;21.57;65.06;101312.06;5105293;28;20040;-64
2022/05/20 11:38:02;;;;;;;29.13;22.55;;;;;;;21.41;65.48;101306.66;5100686;28;20517;-64
2022/05/20 11:40:48;;;;;;;26.08;21.33;;;;;;;21.33;66.31;101309.69;5096758;28;20072;-65
2022/05/20 11:43:38;;;;;;;29.17;22.38;;;;;;;21.13;67.75;101302.69;5097336;28;20074;-64
2022/05/20 11:46:09;;;;;;;28.08;22.70;;;;;;;21.02;68.10;101307.69;5096858;28;20032;-64
2022/05/20 11:48:55;;;;;;;29.88;23.30;;;;;;;20.92;68.74;101298.44;5097196;28;20032;-64
2022/05/20 11:51:42;;;;;;;33.55;23.42;;;;;;;20.81;69.64;101284.78;5097005;28;20443;-64